createdAt,value
2023-01-01T00:00:02.045Z,13.25
2023-01-01T00:02:37.056Z,13.19
2023-01-01T00:05:05.895Z,13.10
2023-01-01T00:07:33.007Z,13.02
2023-01-01T00:10:18.288Z,12.99
2023-01-01T00:12:45.152Z,12.89
2023-01-01T00:15:11.982Z,12.85
2023-01-01T00:17:38.719Z,12.88
2023-01-01T00:20:06.188Z,12.88
2023-01-01T00:22:53.757Z,12.93
2023-01-01T00:25:19.818Z,12.92
2023-01-01T00:27:46.704Z,12.93
2023-01-01T00:30:13.913Z,12.86
2023-01-01T00:32:40.701Z,12.92
2023-01-01T00:35:07.869Z,12.92
2023-01-01T00:37:34.681Z,12.88
2023-01-01T00:40:01.604Z,12.87
2023-01-01T00:42:28.326Z,12.88
2023-01-01T00:44:55.051Z,12.82
2023-01-01T00:47:21.781Z,12.80
2023-01-01T00:49:48.576Z,12.87
2023-01-01T00:52:15.393Z,12.83
2023-01-01T00:54:42.054Z,12.78
2023-01-01T00:57:08.858Z,12.76
2023-01-01T00:59:35.675Z,12.76
2023-01-01T01:02:02.905Z,12.80
2023-01-01T01:04:29.742Z,12.77
2023-01-01T01:06:56.416Z,12.73
2023-01-01T01:09:23.021Z,12.72
2023-01-01T01:11:49.813Z,12.74
2023-01-01T01:14:16.580Z,12.74
2023-01-01T01:16:43.646Z,12.69
2023-01-01T01:19:18.890Z,12.69
2023-01-01T01:21:47.325Z,12.65
2023-01-01T01:24:14.100Z,12.60
2023-01-01T01:26:41.061Z,12.59
2023-01-01T01:29:08.321Z,12.55
2023-01-01T01:31:35.191Z,12.57
2023-01-01T01:34:02.091Z,12.53
2023-01-01T01:36:29.810Z,12.50
2023-01-01T01:38:56.933Z,12.48
2023-01-01T01:41:28.619Z,12.51
2023-01-01T01:44:21.540Z,12.55
2023-01-01T01:46:48.287Z,12.68
2023-01-01T01:49:19.851Z,12.74
2023-01-01T01:51:46.648Z,12.86
2023-01-01T01:54:20.912Z,12.89
2023-01-01T01:57:01.385Z,12.99
2023-01-01T01:59:32.236Z,13.08
2023-01-01T02:01:59.982Z,13.19
2023-01-01T02:04:27.333Z,13.25
2023-01-01T02:06:55.747Z,13.31
2023-01-01T02:09:22.809Z,13.31
2023-01-01T02:11:49.637Z,13.37
2023-01-01T02:14:16.514Z,13.35
2023-01-01T02:16:50.126Z,13.32
2023-01-01T02:19:57.444Z,13.19
2023-01-01T02:22:38.101Z,13.04
2023-01-01T02:25:29.170Z,12.99
2023-01-01T02:28:25.823Z,12.95
2023-01-01T02:30:53.754Z,12.93
2023-01-01T02:33:25.836Z,12.88
2023-01-01T02:35:58.677Z,12.83
2023-01-01T02:38:37.682Z,12.77
2023-01-01T02:41:09.644Z,12.67
2023-01-01T02:43:37.483Z,12.62
2023-01-01T02:46:09.361Z,12.53
2023-01-01T02:48:37.936Z,12.24
2023-01-01T02:51:14.433Z,11.88
2023-01-01T02:54:03.194Z,11.65
2023-01-01T02:56:48.140Z,11.48
2023-01-01T02:59:39.402Z,11.45
2023-01-01T03:02:09.197Z,11.51
2023-01-01T03:04:54.940Z,11.63
2023-01-01T03:07:33.907Z,11.69
2023-01-01T03:10:15.412Z,11.69
2023-01-01T03:12:55.577Z,11.71
2023-01-01T03:15:43.000Z,11.70
2023-01-01T03:18:25.043Z,11.70
2023-01-01T03:20:56.465Z,11.63
2023-01-01T03:23:30.670Z,11.44
2023-01-01T03:26:03.229Z,11.27
2023-01-01T03:28:35.553Z,11.23
2023-01-01T03:31:03.888Z,11.16
2023-01-01T03:33:34.902Z,11.09
2023-01-01T03:36:10.217Z,11.08
2023-01-01T03:38:43.080Z,11.07
2023-01-01T03:41:26.202Z,11.03
2023-01-01T03:44:01.649Z,11.04
2023-01-01T03:46:32.406Z,11.04
2023-01-01T03:49:04.156Z,11.05
2023-01-01T03:51:56.324Z,11.03
2023-01-01T03:55:07.328Z,11.05
2023-01-01T03:58:03.147Z,11.03
2023-01-01T04:00:37.034Z,11.04
2023-01-01T04:03:06.943Z,11.08
2023-01-01T04:05:38.080Z,11.03
2023-01-01T04:08:05.200Z,11.07
2023-01-01T04:10:35.346Z,11.08
2023-01-01T04:13:05.047Z,11.06
2023-01-01T04:15:32.961Z,11.07
2023-01-01T04:18:00.269Z,11.01
2023-01-01T04:20:27.177Z,11.00
2023-01-01T04:22:57.978Z,10.96
2023-01-01T04:25:25.150Z,10.97
2023-01-01T04:27:51.965Z,10.94
2023-01-01T04:30:18.790Z,10.90
2023-01-01T04:32:45.786Z,10.95
2023-01-01T04:35:14.460Z,10.92
2023-01-01T04:37:43.393Z,10.89
2023-01-01T04:40:11.460Z,10.89
2023-01-01T04:42:38.730Z,10.88
2023-01-01T04:45:06.455Z,10.88
2023-01-01T04:47:33.640Z,10.87
2023-01-01T04:50:00.375Z,10.79
2023-01-01T04:52:27.228Z,10.79
2023-01-01T04:54:53.998Z,10.80
2023-01-01T04:57:20.745Z,10.78
2023-01-01T04:59:47.973Z,10.78
2023-01-01T05:02:14.846Z,10.75
2023-01-01T05:04:41.616Z,10.72
2023-01-01T05:07:08.453Z,10.77
2023-01-01T05:09:35.238Z,10.73
2023-01-01T05:12:02.079Z,10.76
2023-01-01T05:14:28.820Z,10.79
2023-01-01T05:16:56.013Z,10.80
2023-01-01T05:19:22.788Z,10.82
2023-01-01T05:21:49.524Z,10.81
2023-01-01T05:24:16.322Z,10.82
2023-01-01T05:26:46.442Z,10.81
2023-01-01T05:29:17.009Z,10.78
2023-01-01T05:31:45.458Z,10.77
2023-01-01T05:34:12.397Z,10.75
2023-01-01T05:36:39.487Z,10.72
2023-01-01T05:39:08.054Z,10.77
2023-01-01T05:41:36.806Z,10.75
2023-01-01T05:44:06.005Z,10.76
2023-01-01T05:46:33.383Z,10.75
2023-01-01T05:49:00.631Z,10.73
2023-01-01T05:51:28.939Z,10.75
2023-01-01T05:53:56.635Z,10.74
2023-01-01T05:56:23.778Z,10.74
2023-01-01T05:58:50.579Z,10.72
2023-01-01T06:01:17.384Z,10.73
2023-01-01T06:03:44.561Z,10.72
2023-01-01T06:06:13.777Z,10.69
2023-01-01T06:08:41.098Z,10.72
2023-01-01T06:11:11.403Z,10.71
2023-01-01T06:13:38.527Z,10.70
2023-01-01T06:16:05.708Z,10.70
2023-01-01T06:18:34.320Z,10.68
2023-01-01T06:21:09.792Z,10.67
2023-01-01T06:23:37.000Z,10.66
2023-01-01T06:26:19.202Z,10.65
2023-01-01T06:28:47.298Z,10.63
2023-01-01T06:31:16.622Z,10.62
2023-01-01T06:33:43.917Z,10.59
2023-01-01T06:36:12.669Z,10.58
2023-01-01T06:38:42.729Z,10.55
2023-01-01T06:41:19.208Z,10.57
2023-01-01T06:43:46.756Z,10.56
2023-01-01T06:46:27.812Z,10.56
2023-01-01T06:48:57.542Z,10.56
2023-01-01T06:51:27.171Z,10.56
2023-01-01T06:53:54.660Z,10.54
2023-01-01T06:56:22.045Z,10.51
2023-01-01T06:58:49.187Z,10.53
2023-01-01T07:01:21.779Z,10.50
2023-01-01T07:03:53.399Z,10.46
2023-01-01T07:06:21.072Z,10.47
2023-01-01T07:08:47.966Z,10.45
2023-01-01T07:11:14.908Z,10.49
2023-01-01T07:13:41.878Z,10.46
2023-01-01T07:16:13.208Z,10.43
2023-01-01T07:18:40.643Z,10.44
2023-01-01T07:21:28.446Z,10.43
2023-01-01T07:24:00.477Z,10.43
2023-01-01T07:26:28.967Z,10.39
2023-01-01T07:28:59.646Z,10.36
2023-01-01T07:31:29.494Z,10.37
2023-01-01T07:33:56.181Z,10.35
2023-01-01T07:36:23.116Z,10.32
2023-01-01T07:38:49.835Z,10.32
2023-01-01T07:41:16.531Z,10.31
2023-01-01T07:43:43.251Z,10.30
2023-01-01T07:46:14.764Z,10.26
2023-01-01T07:48:41.877Z,10.24
2023-01-01T07:51:08.803Z,10.24
2023-01-01T07:53:35.567Z,10.20
2023-01-01T07:56:02.480Z,10.20
2023-01-01T07:58:29.195Z,10.16
2023-01-01T08:00:55.963Z,10.19
2023-01-01T08:03:22.764Z,10.18
2023-01-01T08:05:49.762Z,10.18
2023-01-01T08:08:16.395Z,10.21
2023-01-01T08:10:43.091Z,10.18
2023-01-01T08:13:10.052Z,10.19
2023-01-01T08:15:36.757Z,10.21
2023-01-01T08:18:05.830Z,10.21
2023-01-01T08:20:34.096Z,10.24
2023-01-01T08:23:07.033Z,10.17
2023-01-01T08:25:35.303Z,10.18
2023-01-01T08:28:02.148Z,10.19
2023-01-01T08:30:29.176Z,10.17
2023-01-01T08:32:56.237Z,10.16
2023-01-01T08:35:23.049Z,10.15
2023-01-01T08:37:49.946Z,10.13
2023-01-01T08:40:16.870Z,10.16
2023-01-01T08:42:43.790Z,10.14
2023-01-01T08:45:10.918Z,10.15
2023-01-01T08:47:37.858Z,10.19
2023-01-01T08:50:05.357Z,10.22
2023-01-01T08:52:32.155Z,10.23
2023-01-01T08:54:58.991Z,10.25
2023-01-01T08:57:25.702Z,10.29
2023-01-01T08:59:52.397Z,10.31
2023-01-01T09:02:19.157Z,10.35
2023-01-01T09:04:46.236Z,10.42
2023-01-01T09:07:13.043Z,10.42
2023-01-01T09:09:39.913Z,10.43
2023-01-01T09:12:08.426Z,10.46
2023-01-01T09:14:36.139Z,10.50
2023-01-01T09:17:03.628Z,10.52
2023-01-01T09:19:30.581Z,10.63
2023-01-01T09:21:58.325Z,10.64
2023-01-01T09:24:25.267Z,10.68
2023-01-01T09:26:56.406Z,10.78
2023-01-01T09:29:23.955Z,10.83
2023-01-01T09:31:50.897Z,10.89
2023-01-01T09:34:18.218Z,10.95
2023-01-01T09:36:46.053Z,10.97
2023-01-01T09:39:15.617Z,10.94
2023-01-01T09:42:20.333Z,10.89
2023-01-01T09:45:07.320Z,10.86
2023-01-01T09:47:34.070Z,10.84
2023-01-01T09:50:08.488Z,10.82
2023-01-01T09:52:49.277Z,10.82
2023-01-01T09:55:23.162Z,10.82
2023-01-01T09:57:50.074Z,10.83
2023-01-01T10:00:18.962Z,10.79
2023-01-01T10:03:12.089Z,10.89
2023-01-01T10:05:44.946Z,11.16
2023-01-01T10:08:29.744Z,11.18
2023-01-01T10:11:20.161Z,11.31
2023-01-01T10:13:48.146Z,11.29
2023-01-01T10:16:19.257Z,11.28
2023-01-01T10:18:54.868Z,11.28
2023-01-01T10:21:30.195Z,11.24
2023-01-01T10:24:14.738Z,11.24
2023-01-01T10:26:41.524Z,11.26
2023-01-01T10:29:25.736Z,11.26
2023-01-01T10:31:55.397Z,11.26
2023-01-01T10:34:24.543Z,11.31
2023-01-01T10:36:55.963Z,11.37
2023-01-01T10:39:24.054Z,11.41
2023-01-01T10:41:51.607Z,11.47
2023-01-01T10:44:28.814Z,11.54
2023-01-01T10:47:05.088Z,11.54
2023-01-01T10:49:31.990Z,11.58
2023-01-01T10:51:59.557Z,11.58
2023-01-01T10:54:38.403Z,11.64
2023-01-01T10:57:31.532Z,11.65
2023-01-01T11:00:22.671Z,11.67
2023-01-01T11:03:14.814Z,11.70
2023-01-01T11:06:00.337Z,11.73
2023-01-01T11:08:29.402Z,11.75
2023-01-01T11:10:59.381Z,11.80
2023-01-01T11:13:27.391Z,11.79
2023-01-01T11:15:54.201Z,11.85
2023-01-01T11:18:35.625Z,11.88
2023-01-01T11:21:05.420Z,11.98
2023-01-01T11:23:35.163Z,12.14
2023-01-01T11:26:14.032Z,12.64
2023-01-01T11:28:41.887Z,13.32
2023-01-01T11:31:20.079Z,13.52
2023-01-01T11:33:53.145Z,13.15
2023-01-01T11:36:30.163Z,13.04
2023-01-01T11:39:26.535Z,12.73
2023-01-01T11:41:58.249Z,12.64
2023-01-01T11:44:24.810Z,12.34
2023-01-01T11:46:51.585Z,12.27
2023-01-01T11:49:25.971Z,12.18
2023-01-01T11:51:52.703Z,12.15
2023-01-01T11:54:36.117Z,12.23
2023-01-01T11:57:17.059Z,12.25
2023-01-01T11:59:53.032Z,12.20
2023-01-01T12:02:33.957Z,12.08
2023-01-01T12:05:16.960Z,12.07
2023-01-01T12:07:45.258Z,12.07
2023-01-01T12:10:23.396Z,11.99
2023-01-01T12:12:53.012Z,12.03
2023-01-01T12:15:46.945Z,12.08
2023-01-01T12:18:23.778Z,12.11
2023-01-01T12:21:00.668Z,11.96
2023-01-01T12:23:27.759Z,12.05
2023-01-01T12:26:17.963Z,11.93
2023-01-01T12:28:59.685Z,11.96
2023-01-01T12:31:46.824Z,11.93
2023-01-01T12:34:23.569Z,11.97
2023-01-01T12:37:16.234Z,11.97
2023-01-01T12:40:21.144Z,11.94
2023-01-01T12:43:02.620Z,11.84
2023-01-01T12:46:11.785Z,11.87
2023-01-01T12:48:47.655Z,11.86
2023-01-01T12:51:46.843Z,11.81
2023-01-01T12:54:27.552Z,11.84
2023-01-01T12:57:09.226Z,11.81
2023-01-01T12:59:42.155Z,11.73
2023-01-01T13:02:21.619Z,11.68
2023-01-01T13:04:53.121Z,11.65
2023-01-01T13:07:30.775Z,11.65
2023-01-01T13:10:06.576Z,11.64
2023-01-01T13:12:36.890Z,11.65
2023-01-01T13:15:38.461Z,11.63
2023-01-01T13:18:19.962Z,11.60
2023-01-01T13:20:46.966Z,11.56
2023-01-01T13:23:28.958Z,11.59
2023-01-01T13:26:18.968Z,11.54
2023-01-01T13:28:56.156Z,11.52
2023-01-01T13:31:57.929Z,11.50
2023-01-01T13:34:30.508Z,11.53
2023-01-01T13:37:15.910Z,11.53
2023-01-01T13:40:23.962Z,11.51
2023-01-01T13:42:59.230Z,11.51
2023-01-01T13:46:10.619Z,11.52
2023-01-01T13:48:24.335Z,11.56
2023-01-01T13:51:09.863Z,11.54
2023-01-01T13:53:45.462Z,11.58
2023-01-01T13:56:20.024Z,11.62
2023-01-01T13:59:09.846Z,11.58
2023-01-01T14:01:48.909Z,11.61
2023-01-01T14:04:34.323Z,11.61
2023-01-01T14:07:40.843Z,11.59
2023-01-01T14:10:17.194Z,11.64
2023-01-01T14:12:44.307Z,11.63
2023-01-01T14:15:26.202Z,11.64
2023-01-01T14:17:54.733Z,11.69
2023-01-01T14:20:24.021Z,11.71
2023-01-01T14:22:52.181Z,11.75
2023-01-01T14:25:29.580Z,11.75
2023-01-01T14:27:58.780Z,11.75
2023-01-01T14:30:31.781Z,11.82
2023-01-01T14:33:03.203Z,11.88
2023-01-01T14:35:30.602Z,11.91
2023-01-01T14:37:57.511Z,11.93
2023-01-01T14:40:28.738Z,11.88
2023-01-01T14:43:00.472Z,11.88
2023-01-01T14:45:27.667Z,11.87
2023-01-01T14:47:56.196Z,11.84
2023-01-01T14:50:28.180Z,11.85
2023-01-01T14:53:01.431Z,11.83
2023-01-01T14:55:34.276Z,11.85
2023-01-01T14:58:01.734Z,11.84
2023-01-01T15:00:32.116Z,11.84
2023-01-01T15:03:12.719Z,11.84
2023-01-01T15:05:40.862Z,11.82
2023-01-01T15:08:19.489Z,11.82
2023-01-01T15:10:46.527Z,11.87
2023-01-01T15:13:22.581Z,11.88
2023-01-01T15:15:57.928Z,11.91
2023-01-01T15:18:45.731Z,11.92
2023-01-01T15:21:33.713Z,11.92
2023-01-01T15:24:01.696Z,11.90
2023-01-01T15:26:28.659Z,11.92
2023-01-01T15:28:57.502Z,11.93
2023-01-01T15:31:38.191Z,11.97
2023-01-01T15:34:05.254Z,11.99
2023-01-01T15:36:32.518Z,11.97
2023-01-01T15:38:59.765Z,11.95
2023-01-01T15:41:48.966Z,11.97
2023-01-01T15:44:17.703Z,11.97
2023-01-01T15:46:53.589Z,11.96
2023-01-01T15:49:26.457Z,11.97
2023-01-01T15:51:56.897Z,11.98
2023-01-01T15:54:24.909Z,11.95
2023-01-01T15:56:52.258Z,11.98
2023-01-01T15:59:28.063Z,11.97
2023-01-01T16:02:33.122Z,11.94
2023-01-01T16:05:00.360Z,11.87
2023-01-01T16:07:28.133Z,11.83
2023-01-01T16:09:58.165Z,11.80
2023-01-01T16:12:25.354Z,11.81
2023-01-01T16:14:52.060Z,11.77
2023-01-01T16:17:20.769Z,11.76
2023-01-01T16:19:48.459Z,11.72
2023-01-01T16:22:17.069Z,11.65
2023-01-01T16:24:45.520Z,11.68
2023-01-01T16:27:12.962Z,11.66
2023-01-01T16:29:43.199Z,11.69
2023-01-01T16:32:19.675Z,11.65
2023-01-01T16:34:46.420Z,11.61
2023-01-01T16:37:13.281Z,11.65
2023-01-01T16:39:39.928Z,11.65
2023-01-01T16:42:11.643Z,11.64
2023-01-01T16:44:41.863Z,11.64
2023-01-01T16:47:09.225Z,11.63
2023-01-01T16:49:36.546Z,11.63
2023-01-01T16:52:03.529Z,11.58
2023-01-01T16:54:30.136Z,11.59
2023-01-01T16:56:56.840Z,11.63
2023-01-01T16:59:24.765Z,11.55
2023-01-01T17:01:51.682Z,11.53
2023-01-01T17:04:18.828Z,11.57
2023-01-01T17:06:45.574Z,11.52
2023-01-01T17:09:13.685Z,11.45
2023-01-01T17:11:40.817Z,11.40
2023-01-01T17:14:07.770Z,11.43
2023-01-01T17:16:39.175Z,11.46
2023-01-01T17:19:16.018Z,11.38
2023-01-01T17:21:45.583Z,11.38
2023-01-01T17:24:12.375Z,11.32
2023-01-01T17:26:39.053Z,11.38
2023-01-01T17:29:07.627Z,11.37
2023-01-01T17:31:34.783Z,11.36
2023-01-01T17:34:01.670Z,11.33
2023-01-01T17:36:28.758Z,11.34
2023-01-01T17:38:56.164Z,11.33
2023-01-01T17:41:23.964Z,11.35
2023-01-01T17:43:51.698Z,11.32
2023-01-01T17:46:26.607Z,11.31
2023-01-01T17:48:53.508Z,11.31
2023-01-01T17:51:21.031Z,11.30
2023-01-01T17:53:48.688Z,11.30
2023-01-01T17:56:18.013Z,11.24
2023-01-01T17:58:46.411Z,11.20
2023-01-01T18:01:13.279Z,11.22
2023-01-01T18:03:41.203Z,11.18
2023-01-01T18:06:08.553Z,11.16
2023-01-01T18:08:35.253Z,11.13
2023-01-01T18:11:02.346Z,11.11
2023-01-01T18:13:29.150Z,11.12
2023-01-01T18:16:00.591Z,11.09
2023-01-01T18:18:29.011Z,11.11
2023-01-01T18:21:03.248Z,11.16
2023-01-01T18:23:39.682Z,11.17
2023-01-01T18:26:09.446Z,11.17
2023-01-01T18:28:36.606Z,11.16
2023-01-01T18:31:23.260Z,11.17
2023-01-01T18:33:50.812Z,11.15
2023-01-01T18:36:20.661Z,11.18
2023-01-01T18:38:56.991Z,11.16
2023-01-01T18:41:43.327Z,11.18
2023-01-01T18:44:24.815Z,11.21
2023-01-01T18:47:06.871Z,11.21
2023-01-01T18:49:35.607Z,11.21
2023-01-01T18:52:08.435Z,11.19
2023-01-01T18:54:35.734Z,11.19
2023-01-01T18:57:05.430Z,11.17
2023-01-01T18:59:32.458Z,11.16
2023-01-01T19:01:59.290Z,11.17
2023-01-01T19:04:26.376Z,11.17
2023-01-01T19:06:53.443Z,11.16
2023-01-01T19:09:23.532Z,11.08
2023-01-01T19:11:52.393Z,10.95
2023-01-01T19:14:24.560Z,10.86
2023-01-01T19:16:55.633Z,10.73
2023-01-01T19:19:25.616Z,10.73
2023-01-01T19:22:27.008Z,10.60
2023-01-01T19:24:53.773Z,10.50
2023-01-01T19:27:23.561Z,10.36
2023-01-01T19:29:51.869Z,10.09
2023-01-01T19:32:20.853Z,10.05
2023-01-01T19:34:47.803Z,10.10
2023-01-01T19:37:14.637Z,10.13
2023-01-01T19:39:41.539Z,9.96
2023-01-01T19:42:08.309Z,9.92
2023-01-01T19:44:36.441Z,9.95
2023-01-01T19:47:06.528Z,10.00
2023-01-01T19:49:33.302Z,10.11
2023-01-01T19:52:00.199Z,10.16
2023-01-01T19:54:27.185Z,10.18
2023-01-01T19:56:54.023Z,10.18
2023-01-01T19:59:20.902Z,10.17
2023-01-01T20:02:09.777Z,10.15
2023-01-01T20:04:35.251Z,10.16
2023-01-01T20:07:01.968Z,10.19
2023-01-01T20:09:28.749Z,10.19
2023-01-01T20:11:55.737Z,10.23
2023-01-01T20:14:22.561Z,10.22
2023-01-01T20:16:50.943Z,10.26
2023-01-01T20:19:17.750Z,10.24
2023-01-01T20:22:02.665Z,10.34
2023-01-01T20:24:29.771Z,10.35
2023-01-01T20:27:01.678Z,10.26
2023-01-01T20:29:28.609Z,10.30
2023-01-01T20:31:55.666Z,10.31
2023-01-01T20:34:22.791Z,10.30
2023-01-01T20:37:07.824Z,10.28
2023-01-01T20:39:38.233Z,10.31
2023-01-01T20:42:05.368Z,10.30
2023-01-01T20:44:32.489Z,10.32
2023-01-01T20:46:59.264Z,10.36
2023-01-01T20:49:25.975Z,10.37
2023-01-01T20:51:53.702Z,10.39
2023-01-01T20:54:22.177Z,10.40
2023-01-01T20:56:49.629Z,10.38
2023-01-01T21:02:08.509Z,10.50
2023-01-01T21:04:40.505Z,10.46
2023-01-01T21:07:12.184Z,10.42
2023-01-01T21:09:40.255Z,10.45
2023-01-01T21:12:08.236Z,10.42
2023-01-01T21:14:35.447Z,10.47
2023-01-01T21:17:17.837Z,10.36
2023-01-01T21:19:44.889Z,10.38
2023-01-01T21:22:13.162Z,10.42
2023-01-01T21:24:40.281Z,10.43
2023-01-01T21:27:24.081Z,10.45
2023-01-01T21:29:52.855Z,10.43
2023-01-01T21:32:29.074Z,10.40
2023-01-01T21:34:56.062Z,10.39
2023-01-01T21:37:41.488Z,10.46
2023-01-01T21:40:30.094Z,10.53
2023-01-01T21:43:25.372Z,10.58
2023-01-01T21:45:52.479Z,10.62
2023-01-01T21:48:22.726Z,10.52
2023-01-01T21:50:52.113Z,10.45
2023-01-01T21:53:35.305Z,10.49
2023-01-01T21:56:17.909Z,10.57
2023-01-01T21:59:04.256Z,10.58
2023-01-01T22:01:43.747Z,10.59
2023-01-01T22:04:10.621Z,10.65
2023-01-01T22:06:50.023Z,10.66
2023-01-01T22:09:17.031Z,10.69
2023-01-01T22:11:47.775Z,10.68
2023-01-01T22:14:18.178Z,10.68
2023-01-01T22:16:47.629Z,10.68
2023-01-01T22:19:21.252Z,10.68
2023-01-01T22:21:49.408Z,10.67
2023-01-01T22:24:36.593Z,10.62
2023-01-01T22:27:15.443Z,10.69
2023-01-01T22:29:43.888Z,10.70
2023-01-01T22:32:25.650Z,10.72
2023-01-01T22:35:19.704Z,10.67
2023-01-01T22:37:54.026Z,10.73
2023-01-01T22:40:37.453Z,10.66
2023-01-01T22:43:11.577Z,10.66
2023-01-01T22:45:44.128Z,10.69
2023-01-01T22:48:18.833Z,10.73
2023-01-01T22:50:45.695Z,10.67
2023-01-01T22:53:12.405Z,10.68
2023-01-01T22:55:39.248Z,10.72
2023-01-01T22:58:06.157Z,10.72
2023-01-01T23:00:32.847Z,10.66
2023-01-01T23:03:01.884Z,10.67
2023-01-01T23:05:28.897Z,10.67
2023-01-01T23:07:55.739Z,10.69
2023-01-01T23:10:22.594Z,10.69
2023-01-01T23:12:49.240Z,10.67
2023-01-01T23:15:34.580Z,10.66
2023-01-01T23:18:01.256Z,10.65
2023-01-01T23:20:28.221Z,10.60
2023-01-01T23:22:56.275Z,10.63
2023-01-01T23:25:23.798Z,10.64
2023-01-01T23:27:52.896Z,10.63
2023-01-01T23:30:19.729Z,10.62
2023-01-01T23:32:46.813Z,10.61
2023-01-01T23:35:14.231Z,10.63
2023-01-01T23:37:41.558Z,10.66
2023-01-01T23:40:08.916Z,10.64
2023-01-01T23:42:36.049Z,10.68
2023-01-01T23:45:02.831Z,10.66
2023-01-01T23:47:29.609Z,10.69
2023-01-01T23:49:56.429Z,10.72
2023-01-01T23:52:23.233Z,10.73
2023-01-01T23:54:49.955Z,10.77
2023-01-01T23:57:16.603Z,10.75
2023-01-01T23:59:43.297Z,10.74
